Time;durP1;ratioP1;P1;durP2;ratioP2;P2;SDS_P1;SDS_P2;PMS_P1;PMS_P2;Temp;Humidity;BMP_temperature;BMP_pressure;BME280_temperature;BME280_humidity;BME280_pressure;Samples;Min_cycle;Max_cycle;Signal;HPM_P1;HPM_P2
2023/07/05 00:03:10;;;;;;;9.15;5.55;;;;;;;17.50;59.03;99641.03;20205160;29;20253;-80
2023/07/05 00:13:13;;;;;;;7.45;5.00;;;;;;;17.51;59.73;99636.19;20214833;29;20258;-79
2023/07/05 00:23:15;;;;;;;3.42;2.90;;;;;;;17.35;61.21;99624.25;20218451;29;20217;-79
2023/07/05 00:33:18;;;;;;;5.13;2.78;;;;;;;17.35;61.62;99588.09;20195588;29;20689;-79
2023/07/05 00:43:21;;;;;;;5.18;3.20;;;;;;;17.78;61.19;99572.16;20216579;29;20500;-79
2023/07/05 00:53:24;;;;;;;3.38;2.35;;;;;;;17.46;63.18;99571.91;20227751;29;20221;-79
2023/07/05 01:03:27;;;;;;;7.13;2.70;;;;;;;17.17;67.67;99553.75;20205021;29;20527;-79
2023/07/05 01:13:45;;;;;;;6.22;3.00;;;;;;;17.58;69.37;99542.34;20168440;29;20198;-78
2023/07/05 01:24:26;;;;;;;7.95;3.25;;;;;;;17.79;67.97;99541.69;20185915;29;20652;-79
2023/07/05 01:34:34;;;;;;;5.85;3.47;;;;;;;17.13;69.90;99518.81;20215647;29;20266;-79
2023/07/05 01:44:37;;;;;;;3.97;2.60;;;;;;;16.56;72.27;99491.88;20231033;29;20229;-79
2023/07/05 01:55:15;;;;;;;3.05;2.33;;;;;;;16.29;73.37;99467.63;20193377;29;20198;-80
2023/07/05 02:05:19;;;;;;;4.50;2.40;;;;;;;16.75;71.41;99446.22;20191207;29;20519;-80
2023/07/05 02:15:22;;;;;;;4.43;2.25;;;;;;;16.70;70.36;99406.00;20208501;29;20340;-80
2023/07/05 02:25:25;;;;;;;4.70;2.35;;;;;;;17.08;69.92;99390.44;20220774;29;20222;-80
2023/07/05 02:35:27;;;;;;;3.78;1.90;;;;;;;16.76;69.77;99370.31;20220542;29;20197;-80
2023/07/05 02:45:32;;;;;;;6.60;1.85;;;;;;;16.85;70.07;99370.78;20189699;29;20626;-79
2023/07/05 02:55:34;;;;;;;3.00;1.70;;;;;;;16.94;70.36;99379.78;20235637;29;20193;-79
2023/07/05 03:05:37;;;;;;;2.85;1.45;;;;;;;16.43;72.79;99369.22;20240093;29;20404;-79
2023/07/05 03:15:39;;;;;;;5.10;1.30;;;;;;;16.30;73.78;99347.19;20231944;29;20261;-79
2023/07/05 03:25:56;;;;;;;2.53;1.83;;;;;;;16.56;73.04;99358.41;20229254;29;20289;-80
2023/07/05 03:36:04;;;;;;;2.05;1.67;;;;;;;16.83;71.43;99368.34;20223385;29;20197;-79
2023/07/05 03:46:10;;;;;;;2.05;1.45;;;;;;;16.76;71.39;99373.16;20223149;29;20289;-80
2023/07/05 03:56:12;;;;;;;1.40;1.30;;;;;;;16.78;70.74;99399.16;20205371;29;20591;-80
2023/07/05 04:06:16;;;;;;;2.00;0.90;;;;;;;16.45;68.69;99400.06;20238674;29;20233;-81
2023/07/05 04:16:20;;;;;;;1.58;1.02;;;;;;;15.49;63.81;99464.16;20224718;29;20500;-81
2023/07/05 04:26:25;;;;;;;2.90;0.60;;;;;;;15.36;59.91;99505.25;20223885;29;20210;-80
2023/07/05 04:36:29;;;;;;;2.38;1.20;;;;;;;15.18;61.62;99526.84;20187074;29;20477;-80
2023/07/05 04:46:32;;;;;;;0.93;0.87;;;;;;;15.08;59.96;99534.78;20199234;29;20289;-79
2023/07/05 04:56:36;;;;;;;1.73;1.43;;;;;;;14.74;59.96;99561.25;20218216;29;20225;-78
2023/07/05 05:06:39;;;;;;;2.00;0.93;;;;;;;14.75;60.63;99569.38;20199696;29;20280;-81
2023/07/05 05:16:41;;;;;;;3.65;1.60;;;;;;;14.71;59.03;99579.00;20200986;29;20619;-83
2023/07/05 05:26:45;;;;;;;2.23;1.53;;;;;;;14.60;55.47;99575.13;20209123;29;20214;-81
2023/07/05 05:36:48;;;;;;;4.13;1.90;;;;;;;14.12;57.00;99566.06;20212852;29;20507;-81
2023/07/05 05:46:50;;;;;;;2.90;1.93;;;;;;;14.92;55.01;99581.44;20203082;29;20245;-81
2023/07/05 05:56:53;;;;;;;2.70;1.37;;;;;;;15.19;53.42;99571.00;20221842;29;20205;-82
2023/07/05 06:06:55;;;;;;;2.37;1.57;;;;;;;14.58;54.62;99600.19;20203899;29;20264;-82
2023/07/05 06:16:58;;;;;;;2.83;1.50;;;;;;;15.19;52.69;99602.19;20210598;29;20217;-81
2023/07/05 06:27:01;;;;;;;3.57;1.63;;;;;;;15.80;50.24;99602.81;20249609;29;20289;-81
2023/07/05 06:37:03;;;;;;;3.20;1.52;;;;;;;14.91;49.86;99597.59;20207555;29;20217;-82
2023/07/05 06:47:06;;;;;;;3.30;1.60;;;;;;;13.96;52.30;99631.16;20219971;29;20300;-80
2023/07/05 06:57:09;;;;;;;2.10;1.35;;;;;;;14.90;49.91;99624.28;20220179;29;20217;-82
2023/07/05 07:07:11;;;;;;;4.03;1.43;;;;;;;15.13;49.25;99638.50;20200547;29;20213;-83
2023/07/05 07:17:13;;;;;;;2.00;1.37;;;;;;;14.31;49.90;99628.34;20210362;29;20213;-80
2023/07/05 07:27:20;;;;;;;3.83;1.60;;;;;;;16.01;46.95;99630.69;20228102;29;20335;-83
2023/07/05 07:37:23;;;;;;;2.45;1.42;;;;;;;15.18;48.56;99645.88;20200237;29;20302;-81
2023/07/05 07:47:25;;;;;;;2.93;1.40;;;;;;;15.07;48.39;99649.31;20212232;29;20300;-83
2023/07/05 07:57:28;;;;;;;2.03;1.20;;;;;;;15.33;46.77;99662.75;20217047;29;20281;-83
2023/07/05 08:07:32;;;;;;;3.53;0.90;;;;;;;14.32;50.22;99672.44;20261350;29;20205;-84
2023/07/05 08:17:35;;;;;;;1.90;0.90;;;;;;;14.65;48.78;99722.09;20218500;29;20221;-80
2023/07/05 08:27:37;;;;;;;1.57;1.03;;;;;;;15.43;48.63;99740.72;20206351;29;20201;-82
2023/07/05 08:37:40;;;;;;;5.57;0.95;;;;;;;15.52;50.45;99749.78;20223777;29;20225;-84
2023/07/05 08:47:48;;;;;;;1.43;0.77;;;;;;;15.12;51.83;99766.41;20226333;29;20237;-83
2023/07/05 08:58:09;;;;;;;3.70;1.08;;;;;;;14.52;52.10;99766.72;20179654;29;20206;-84
2023/07/05 09:08:38;;;;;;;3.00;0.80;;;;;;;14.79;50.01;99775.41;20233659;29;20201;-83
2023/07/05 09:19:30;;;;;;;3.42;0.68;;;;;;;14.61;50.32;99792.81;20250889;29;20221;-81
2023/07/05 09:30:04;;;;;;;2.57;0.93;;;;;;;14.98;48.31;99798.88;20226299;29;20222;-84
2023/07/05 09:40:23;;;;;;;2.97;0.80;;;;;;;16.26;44.91;99798.53;20232050;29;20514;-80
2023/07/05 09:50:30;;;;;;;2.33;0.77;;;;;;;16.32;44.17;99819.75;20236338;29;20245;-82
2023/07/05 10:00:40;;;;;;;3.78;0.70;;;;;;;16.73;43.09;99783.06;20223247;29;20220;-84
2023/07/05 10:11:22;;;;;;;7.10;0.73;;;;;;;17.12;42.52;99821.38;20219060;29;20202;-84
2023/07/05 10:21:41;;;;;;;4.25;0.77;;;;;;;16.50;41.90;99818.03;20215311;29;20222;-83
2023/07/05 10:31:54;;;;;;;5.50;0.55;;;;;;;16.90;40.81;99849.88;20214041;29;20254;-83
2023/07/05 10:41:59;;;;;;;9.70;1.48;;;;;;;16.95;41.44;99856.06;20179049;29;20236;-84
2023/07/05 10:52:05;;;;;;;11.05;1.27;;;;;;;17.99;39.63;99872.44;20229012;29;20202;-83
2023/07/05 11:02:18;;;;;;;7.10;0.82;;;;;;;17.01;39.65;99874.44;20197275;29;20225;-84
2023/07/05 11:12:27;;;;;;;5.93;0.90;;;;;;;17.65;37.41;99875.31;20201790;29;20686;-85
2023/07/05 11:22:40;;;;;;;4.40;0.90;;;;;;;17.57;38.31;99873.56;20189379;29;20527;-84
2023/07/05 11:33:15;;;;;;;4.85;1.00;;;;;;;17.32;37.19;99903.72;20166537;29;20205;-84
2023/07/05 11:43:24;;;;;;;4.88;1.15;;;;;;;18.56;36.05;99900.28;20214844;29;20240;-85
2023/07/05 11:53:32;;;;;;;5.75;0.95;;;;;;;18.97;34.10;99906.72;20236252;29;20261;-80
2023/07/05 12:03:41;;;;;;;2.50;0.65;;;;;;;19.17;33.83;99909.31;20195590;29;20285;-83
2023/07/05 12:13:43;;;;;;;7.15;0.80;;;;;;;19.10;33.36;99918.63;20196252;29;20237;-80
2023/07/05 12:23:51;;;;;;;1.88;0.60;;;;;;;17.96;33.67;99933.84;20222097;29;20285;-85
2023/07/05 12:33:55;;;;;;;3.63;1.08;;;;;;;19.51;32.30;99929.91;20206578;29;20201;-82
2023/07/05 12:44:09;;;;;;;4.65;0.47;;;;;;;19.71;31.23;99914.09;20231792;29;20276;-84
2023/07/05 12:54:12;;;;;;;2.22;0.70;;;;;;;19.67;29.64;99933.25;20212370;29;20201;-82
2023/07/05 13:04:17;;;;;;;5.63;0.70;;;;;;;20.37;29.55;99949.84;20220966;29;20229;-79
2023/07/05 13:14:28;;;;;;;6.15;0.90;;;;;;;20.19;31.94;99971.00;20227388;29;20237;-80
2023/07/05 13:24:31;;;;;;;3.67;1.00;;;;;;;20.12;31.38;99960.41;20202521;29;20229;-84
2023/07/05 13:34:34;;;;;;;6.75;0.77;;;;;;;20.24;30.96;99956.34;20192499;29;20201;-84
2023/07/05 13:44:46;;;;;;;3.58;0.95;;;;;;;19.66;32.92;99988.72;20251460;29;20530;-83
2023/07/05 13:54:49;;;;;;;8.82;1.25;;;;;;;17.90;40.24;100021.59;20174732;29;20202;-80
2023/07/05 14:04:51;;;;;;;6.45;1.25;;;;;;;20.71;35.81;100010.38;20233308;29;20233;-83
2023/07/05 14:14:54;;;;;;;5.65;1.00;;;;;;;19.87;37.07;100003.13;20240728;29;20201;-83
2023/07/05 14:24:57;;;;;;;6.75;1.17;;;;;;;19.87;36.96;100017.38;20236860;29;20289;-86
2023/07/05 14:34:59;;;;;;;4.82;1.38;;;;;;;19.16;38.78;100048.25;20192703;29;20261;-79
2023/07/05 14:45:02;;;;;;;3.97;1.40;;;;;;;19.15;38.04;100040.91;20207433;29;20585;-84
2023/07/05 14:55:05;;;;;;;4.32;1.10;;;;;;;19.54;38.86;100066.09;20231696;29;20266;-79
2023/07/05 15:05:08;;;;;;;4.25;1.10;;;;;;;18.60;40.53;100088.38;20224629;29;20569;-79
2023/07/05 15:15:16;;;;;;;3.00;1.15;;;;;;;19.32;40.07;100094.50;20237462;29;20209;-80
2023/07/05 15:25:20;;;;;;;3.13;1.30;;;;;;;18.19;41.88;100096.00;20228741;29;20921;-81
2023/07/05 15:35:25;;;;;;;4.43;0.88;;;;;;;19.13;40.32;100085.31;20207629;29;20539;-83
2023/07/05 15:45:28;;;;;;;2.75;1.08;;;;;;;18.21;41.85;100119.25;20215419;29;20519;-79
2023/07/05 15:55:31;;;;;;;4.00;1.08;;;;;;;19.19;40.63;100101.69;20184838;29;20262;-83
2023/07/05 16:05:39;;;;;;;2.63;1.00;;;;;;;18.56;42.45;100131.13;20215195;29;20526;-83
2023/07/05 16:15:41;;;;;;;3.15;1.48;;;;;;;18.51;41.77;100127.78;20198818;29;20225;-81
2023/07/05 16:25:44;;;;;;;4.07;1.20;;;;;;;17.68;43.09;100144.03;20196068;29;20324;-79
2023/07/05 16:35:54;;;;;;;4.35;1.75;;;;;;;18.45;41.59;100172.88;20212391;29;20719;-78
2023/07/05 16:45:59;;;;;;;4.30;1.58;;;;;;;18.03;43.21;100166.59;20192045;29;20929;-78
2023/07/05 16:56:04;;;;;;;4.22;1.75;;;;;;;18.66;42.52;100172.38;20195770;29;20225;-78
2023/07/05 17:06:09;;;;;;;2.28;1.38;;;;;;;18.85;44.62;100185.63;20212090;29;20265;-78
2023/07/05 17:16:14;;;;;;;3.63;1.45;;;;;;;18.24;45.13;100203.91;20204082;29;20583;-79
2023/07/05 17:26:19;;;;;;;5.57;1.23;;;;;;;17.93;48.67;100234.34;20193060;29;20257;-78
2023/07/05 17:36:24;;;;;;;5.03;1.45;;;;;;;16.85;55.19;100272.50;20206062;29;20973;-78
2023/07/05 17:46:29;;;;;;;4.07;1.25;;;;;;;16.40;60.26;100281.56;20221356;29;20257;-80
2023/07/05 17:56:32;;;;;;;1.63;1.40;;;;;;;17.18;58.96;100271.13;20216279;29;20487;-79
2023/07/05 18:06:35;;;;;;;4.33;1.70;;;;;;;16.56;60.10;100269.38;20082694;29;20258;-79
2023/07/05 18:16:38;;;;;;;3.97;1.77;;;;;;;15.99;62.30;100265.97;20106824;29;20242;-79
2023/07/05 18:26:41;;;;;;;1.77;1.27;;;;;;;16.55;57.56;100262.06;20120617;29;20229;-78
2023/07/05 18:36:44;;;;;;;1.63;0.70;;;;;;;16.67;57.18;100270.44;20121924;29;20228;-79
2023/07/05 18:46:49;;;;;;;1.33;1.00;;;;;;;16.22;58.36;100280.34;20121076;29;20679;-78
2023/07/05 18:56:52;;;;;;;2.43;1.20;;;;;;;17.01;55.83;100294.34;20109621;29;20484;-79
2023/07/05 19:06:54;;;;;;;6.55;4.13;;;;;;;16.33;59.20;100304.13;20126568;29;21656;-79
2023/07/05 19:16:58;;;;;;;3.53;1.30;;;;;;;16.35;57.76;100296.06;20121984;29;20201;-79
2023/07/05 19:27:01;;;;;;;1.80;1.30;;;;;;;16.73;56.77;100322.94;20116906;29;20258;-78
2023/07/05 19:37:04;;;;;;;2.97;1.10;;;;;;;16.80;54.82;100346.66;20138315;29;20206;-78
2023/07/05 19:47:07;;;;;;;1.93;0.80;;;;;;;16.67;53.50;100359.34;20108853;29;20576;-78
2023/07/05 19:57:11;;;;;;;1.92;1.00;;;;;;;16.71;53.88;100367.97;20103067;29;20257;-79
2023/07/05 20:07:14;;;;;;;4.18;0.82;;;;;;;16.27;55.95;100385.09;20102823;29;20711;-79
2023/07/05 20:17:17;;;;;;;2.55;1.08;;;;;;;16.69;53.81;100395.91;20126423;29;20269;-79
2023/07/05 20:27:19;;;;;;;2.53;1.08;;;;;;;16.93;52.62;100407.03;20125885;29;20318;-78
2023/07/05 20:37:22;;;;;;;4.13;2.20;;;;;;;17.62;51.55;100416.75;20130177;29;20237;-79
2023/07/05 20:47:24;;;;;;;3.55;1.25;;;;;;;17.35;52.20;100420.63;20145934;29;20238;-79
2023/07/05 20:57:28;;;;;;;4.38;1.38;;;;;;;17.09;54.12;100429.75;20118553;29;20278;-80
2023/07/05 21:07:31;;;;;;;2.85;1.33;;;;;;;17.10;53.17;100435.06;20129223;29;20581;-79
2023/07/05 21:17:33;;;;;;;3.78;1.70;;;;;;;16.73;54.65;100439.47;20134588;29;20556;-79
2023/07/05 21:27:36;;;;;;;2.67;1.27;;;;;;;17.11;54.35;100430.22;20114922;29;20983;-79
2023/07/05 21:37:38;;;;;;;3.42;1.80;;;;;;;17.05;54.08;100426.00;20122648;29;20230;-79
2023/07/05 21:47:41;;;;;;;5.78;1.83;;;;;;;17.11;54.48;100439.56;20142298;29;20269;-81
2023/07/05 21:57:44;;;;;;;1.92;1.58;;;;;;;16.99;54.54;100439.69;20100678;29;20214;-80
2023/07/05 22:07:49;;;;;;;2.35;1.20;;;;;;;16.72;55.20;100440.66;20114437;29;20221;-81
2023/07/05 22:17:54;;;;;;;2.72;1.70;;;;;;;16.43;55.98;100444.75;20130341;29;20226;-81
2023/07/05 22:27:57;;;;;;;3.40;1.60;;;;;;;15.80;57.08;100473.88;20126438;29;20218;-81
2023/07/05 22:38:01;;;;;;;2.40;1.93;;;;;;;16.47;55.95;100469.22;20123943;29;20221;-81
2023/07/05 22:48:04;;;;;;;2.78;1.60;;;;;;;15.63;58.17;100478.97;20118917;29;20552;-80
2023/07/05 22:58:07;;;;;;;2.65;1.50;;;;;;;15.89;57.82;100470.03;20087448;29;20232;-80
2023/07/05 23:08:09;;;;;;;6.30;1.57;;;;;;;15.70;56.79;100497.03;20121960;29;20234;-78
2023/07/05 23:18:12;;;;;;;2.40;1.53;;;;;;;15.10;57.82;100506.50;20111555;29;20206;-81
2023/07/05 23:28:14;;;;;;;3.15;1.50;;;;;;;14.99;57.93;100511.81;20125094;29;20715;-79
2023/07/05 23:38:17;;;;;;;3.73;2.07;;;;;;;15.22;57.35;100514.97;20122564;29;20198;-80
2023/07/05 23:48:19;;;;;;;3.90;1.40;;;;;;;15.16;56.69;100515.59;20120024;29;20302;-81
2023/07/05 23:58:26;;;;;;;1.77;1.30;;;;;;;15.13;56.38;100528.47;20142811;29;20503;-81
